Time;durP1;ratioP1;P1;durP2;ratioP2;P2;SDS_P1;SDS_P2;PMS_P1;PMS_P2;Temp;Humidity;BMP_temperature;BMP_pressure;BME280_temperature;BME280_humidity;BME280_pressure;Samples;Min_cycle;Max_cycle;Signal;HPM_P1;HPM_P2
2022/09/09 00:02:21;;;;;;;6.63;5.93;;;12.90;99.90;;;;;;4956289;28;20046;-75
2022/09/09 00:05:12;;;;;;;6.40;5.80;;;12.90;99.90;;;;;;4956479;28;20580;-75
2022/09/09 00:07:46;;;;;;;7.13;6.45;;;12.90;99.90;;;;;;4952183;28;20052;-75
2022/09/09 00:10:39;;;;;;;7.32;6.32;;;12.90;99.90;;;;;;4928495;29;20533;-76
2022/09/09 00:13:16;;;;;;;6.67;5.90;;;12.90;99.90;;;;;;4943265;28;20130;-76
2022/09/09 00:15:48;;;;;;;8.48;6.40;;;12.90;99.90;;;;;;4956214;28;20302;-76
2022/09/09 00:18:29;;;;;;;6.68;6.00;;;13.00;99.90;;;;;;4956232;28;20054;-77
2022/09/09 00:21:06;;;;;;;7.13;5.63;;;12.90;99.90;;;;;;4947242;28;20142;-76
2022/09/09 00:23:46;;;;;;;6.90;6.15;;;13.00;99.90;;;;;;4947614;28;20038;-75
2022/09/09 00:26:47;;;;;;;6.63;5.85;;;13.00;99.90;;;;;;4936070;29;20388;-76
2022/09/09 00:29:37;;;;;;;7.75;6.95;;;13.00;99.90;;;;;;4942930;29;20450;-75
2022/09/09 00:32:12;;;;;;;8.02;7.22;;;13.00;99.90;;;;;;4930910;28;20042;-75
2022/09/09 00:35:02;;;;;;;7.20;6.50;;;13.00;99.90;;;;;;4947158;29;20043;-76
2022/09/09 00:37:31;;;;;;;7.95;7.15;;;13.10;99.90;;;;;;4932528;28;20051;-76
2022/09/09 00:40:02;;;;;;;7.97;7.00;;;13.10;99.90;;;;;;4936297;29;20544;-76
2022/09/09 00:42:42;;;;;;;7.90;7.10;;;13.20;99.90;;;;;;4944885;28;20501;-76
2022/09/09 00:45:31;;;;;;;8.60;7.70;;;13.20;99.90;;;;;;4943855;28;20043;-76
2022/09/09 00:48:03;;;;;;;8.52;7.20;;;13.30;99.90;;;;;;4955586;28;20084;-76
2022/09/09 00:50:47;;;;;;;9.07;7.40;;;13.30;99.90;;;;;;4938819;28;20039;-75
2022/09/09 00:53:27;;;;;;;11.43;7.38;;;13.40;99.90;;;;;;4966247;28;20133;-76
2022/09/09 00:56:11;;;;;;;8.27;7.38;;;13.40;99.90;;;;;;4955583;28;20093;-76
2022/09/09 00:58:36;;;;;;;8.18;7.35;;;13.40;99.90;;;;;;4952761;28;20043;-76
2022/09/09 01:01:11;;;;;;;7.95;7.00;;;13.40;99.90;;;;;;4955458;28;20034;-76
2022/09/09 01:04:08;;;;;;;9.65;7.25;;;13.50;99.90;;;;;;4951391;28;20446;-76
2022/09/09 01:06:39;;;;;;;9.82;7.55;;;13.50;99.90;;;;;;4937015;28;20065;-75
2022/09/09 01:09:26;;;;;;;7.70;6.90;;;13.50;99.90;;;;;;4955270;28;20050;-76
2022/09/09 01:12:43;;;;;;;7.78;6.95;;;13.60;99.90;;;;;;4953911;28;20043;-76
2022/09/09 01:15:11;;;;;;;7.78;6.97;;;13.50;99.90;;;;;;4896876;28;20050;-76
2022/09/09 01:17:46;;;;;;;8.00;7.18;;;13.60;99.90;;;;;;4938214;29;20044;-75
2022/09/09 01:20:24;;;;;;;9.77;7.10;;;13.60;99.90;;;;;;4936543;29;20055;-76
2022/09/09 01:23:03;;;;;;;8.73;6.95;;;13.60;99.90;;;;;;4922514;28;20039;-76
2022/09/09 01:25:44;;;;;;;10.23;7.15;;;13.70;99.90;;;;;;4949075;29;20035;-76
2022/09/09 01:28:25;;;;;;;9.15;7.60;;;13.70;99.90;;;;;;4940917;28;20192;-76
2022/09/09 01:30:50;;;;;;;7.78;6.85;;;13.70;99.90;;;;;;4936626;29;20035;-76
2022/09/09 01:33:17;;;;;;;7.68;6.88;;;13.70;99.90;;;;;;4943575;28;20570;-76
2022/09/09 01:35:46;;;;;;;7.75;6.70;;;13.70;99.90;;;;;;4955212;28;20065;-76
2022/09/09 01:38:13;;;;;;;8.60;7.57;;;13.80;99.90;;;;;;4932929;29;20035;-77
2022/09/09 01:40:39;;;;;;;9.02;7.10;;;13.80;99.90;;;;;;4926345;29;20071;-76
2022/09/09 01:43:06;;;;;;;8.05;6.63;;;13.80;99.90;;;;;;4935707;29;20043;-76
2022/09/09 01:45:32;;;;;;;7.72;6.93;;;13.80;99.90;;;;;;4952326;28;20042;-76
2022/09/09 01:47:59;;;;;;;6.85;6.03;;;13.80;99.90;;;;;;4939401;28;20536;-76
2022/09/09 01:50:24;;;;;;;8.25;6.70;;;13.90;99.90;;;;;;4955933;28;20416;-76
2022/09/09 01:52:54;;;;;;;9.52;7.18;;;13.80;99.90;;;;;;4929300;29;20044;-76
2022/09/09 01:55:29;;;;;;;7.38;6.15;;;13.90;99.90;;;;;;4915236;29;20047;-76
2022/09/09 01:58:13;;;;;;;9.02;6.80;;;13.90;99.90;;;;;;4935748;28;20043;-76
2022/09/09 02:00:47;;;;;;;7.60;6.72;;;13.90;99.90;;;;;;4931348;29;20047;-76
2022/09/09 02:03:28;;;;;;;7.57;6.32;;;13.90;99.90;;;;;;4955699;29;20430;-76
2022/09/09 02:06:13;;;;;;;6.30;5.70;;;13.90;99.90;;;;;;4939737;29;20391;-76
2022/09/09 02:08:45;;;;;;;8.38;6.28;;;13.90;99.90;;;;;;4925863;29;20051;-76
2022/09/09 02:11:22;;;;;;;6.82;6.13;;;13.90;99.90;;;;;;4934023;29;20071;-76
2022/09/09 02:13:54;;;;;;;9.45;6.82;;;13.90;99.90;;;;;;4973718;28;20047;-76
2022/09/09 02:16:37;;;;;;;8.25;5.97;;;14.00;99.90;;;;;;4958664;28;20046;-76
2022/09/09 02:19:25;;;;;;;9.05;5.32;;;14.00;99.90;;;;;;4928762;28;20117;-76
2022/09/09 02:21:55;;;;;;;6.63;5.70;;;14.00;99.90;;;;;;4958396;28;20039;-76
2022/09/09 02:24:22;;;;;;;6.80;6.10;;;14.00;99.90;;;;;;4968445;28;20511;-76
2022/09/09 02:26:52;;;;;;;7.55;6.35;;;14.00;99.90;;;;;;4958047;28;20039;-76
2022/09/09 02:29:32;;;;;;;6.32;5.70;;;14.00;99.90;;;;;;4958365;28;20057;-76
2022/09/09 02:32:02;;;;;;;7.32;6.07;;;14.10;99.90;;;;;;4958342;28;20062;-76
2022/09/09 02:34:31;;;;;;;7.40;6.40;;;14.10;99.90;;;;;;4939047;28;20049;-76
2022/09/09 02:36:59;;;;;;;7.00;5.97;;;14.10;99.90;;;;;;4943095;28;20070;-76
2022/09/09 02:39:25;;;;;;;8.23;6.22;;;14.10;99.90;;;;;;4935658;29;20376;-76
2022/09/09 02:41:51;;;;;;;6.45;5.85;;;14.10;99.90;;;;;;4935734;29;20035;-76
2022/09/09 02:44:18;;;;;;;6.45;5.70;;;14.10;99.90;;;;;;4935685;29;20046;-76
2022/09/09 02:47:23;;;;;;;6.85;5.63;;;14.10;99.90;;;;;;4962820;28;20042;-75
2022/09/09 02:49:55;;;;;;;7.90;5.85;;;14.10;99.90;;;;;;4941237;29;20057;-75
2022/09/09 02:52:41;;;;;;;6.20;5.60;;;14.10;99.90;;;;;;4938219;29;20044;-75
2022/09/09 02:55:29;;;;;;;6.38;5.25;;;14.20;99.90;;;;;;4960298;28;20050;-75
2022/09/09 02:57:56;;;;;;;5.88;5.10;;;14.10;99.90;;;;;;4941931;28;20034;-75
2022/09/09 03:00:27;;;;;;;5.95;5.10;;;14.20;99.90;;;;;;4973776;28;20046;-75
2022/09/09 03:02:54;;;;;;;5.80;5.20;;;14.10;99.90;;;;;;4944395;28;20086;-75
2022/09/09 03:05:20;;;;;;;6.47;5.65;;;14.10;99.90;;;;;;4930753;29;20039;-75
2022/09/09 03:07:46;;;;;;;6.72;4.90;;;14.10;99.90;;;;;;4971968;28;20053;-75
2022/09/09 03:10:12;;;;;;;5.53;5.03;;;14.10;99.90;;;;;;4973516;28;20055;-75
2022/09/09 03:12:38;;;;;;;5.80;5.20;;;14.10;99.90;;;;;;4941785;28;20047;-75
2022/09/09 03:15:05;;;;;;;6.70;5.30;;;14.10;99.90;;;;;;4957422;28;20493;-75
2022/09/09 03:17:30;;;;;;;5.88;5.10;;;14.10;99.90;;;;;;4949811;28;20574;-75
2022/09/09 03:19:58;;;;;;;6.18;4.97;;;14.20;99.90;;;;;;4954776;28;20092;-76
2022/09/09 03:22:25;;;;;;;5.90;4.90;;;14.10;99.90;;;;;;4957433;28;20046;-75
2022/09/09 03:24:51;;;;;;;5.63;4.90;;;14.10;99.90;;;;;;4957274;28;20506;-75
2022/09/09 03:27:17;;;;;;;6.20;4.75;;;14.10;99.90;;;;;;4957062;28;20125;-75
2022/09/09 03:29:43;;;;;;;5.75;4.82;;;14.10;99.90;;;;;;4957138;28;20128;-75
2022/09/09 03:32:10;;;;;;;5.30;4.80;;;14.20;99.90;;;;;;4939231;29;20523;-75
2022/09/09 03:34:38;;;;;;;5.18;4.45;;;14.10;99.90;;;;;;4940411;28;20047;-75
2022/09/09 03:37:05;;;;;;;6.05;5.45;;;14.10;99.90;;;;;;4956590;28;20042;-75
2022/09/09 03:39:31;;;;;;;5.00;4.45;;;14.10;99.90;;;;;;4956839;28;20034;-75
2022/09/09 03:41:56;;;;;;;5.35;4.38;;;14.10;99.90;;;;;;4956988;28;20513;-75
2022/09/09 03:44:22;;;;;;;4.93;4.43;;;14.00;99.90;;;;;;4954095;28;20053;-75
2022/09/09 03:46:47;;;;;;;5.28;4.78;;;14.00;99.90;;;;;;4929486;28;20086;-75
2022/09/09 03:49:13;;;;;;;5.22;4.40;;;14.00;99.90;;;;;;4929350;29;20066;-75
2022/09/09 03:51:39;;;;;;;5.63;4.90;;;14.00;99.90;;;;;;4953417;29;20055;-75
2022/09/09 03:54:07;;;;;;;5.53;4.50;;;14.00;99.90;;;;;;4953835;29;20039;-75
2022/09/09 03:56:34;;;;;;;4.43;4.00;;;14.00;99.90;;;;;;4944713;28;20054;-75
2022/09/09 03:59:00;;;;;;;5.53;4.93;;;13.90;99.90;;;;;;4940360;28;20049;-75
2022/09/09 04:01:25;;;;;;;5.80;4.57;;;13.90;99.90;;;;;;4948618;29;20031;-75
2022/09/09 04:03:52;;;;;;;6.60;5.15;;;13.90;99.90;;;;;;4938450;28;20039;-75
2022/09/09 04:06:19;;;;;;;6.10;4.85;;;13.90;99.90;;;;;;4949596;29;20050;-75
2022/09/09 04:08:48;;;;;;;7.63;5.82;;;13.90;99.90;;;;;;4944869;29;20494;-75
2022/09/09 04:11:15;;;;;;;8.75;6.10;;;13.90;99.90;;;;;;4931858;29;20047;-75
2022/09/09 04:13:41;;;;;;;7.60;6.05;;;13.90;99.90;;;;;;4948204;28;20090;-75
2022/09/09 04:16:10;;;;;;;7.63;6.82;;;13.80;99.90;;;;;;4951701;28;20040;-75
2022/09/09 04:18:35;;;;;;;8.30;6.65;;;13.90;99.90;;;;;;4944668;29;20042;-75
2022/09/09 04:21:02;;;;;;;9.35;7.18;;;13.90;99.90;;;;;;4926902;29;20039;-75
2022/09/09 04:23:29;;;;;;;8.25;7.30;;;13.80;99.90;;;;;;4934077;29;20070;-75
2022/09/09 04:25:56;;;;;;;7.40;6.60;;;13.80;99.90;;;;;;4939778;28;20039;-75
2022/09/09 04:28:24;;;;;;;7.63;6.82;;;13.80;99.90;;;;;;4946588;28;20521;-75
2022/09/09 04:30:50;;;;;;;7.88;6.63;;;13.70;99.90;;;;;;4929325;29;20040;-75
2022/09/09 04:33:19;;;;;;;9.18;7.40;;;13.70;99.90;;;;;;4928391;29;20047;-75
2022/09/09 04:35:47;;;;;;;9.38;7.32;;;13.70;99.90;;;;;;4932328;29;20043;-75
2022/09/09 04:38:13;;;;;;;7.55;6.28;;;13.70;99.90;;;;;;4932553;29;20553;-75
2022/09/09 04:40:42;;;;;;;8.63;6.70;;;13.70;99.90;;;;;;4932712;28;20055;-75
2022/09/09 04:43:09;;;;;;;7.70;6.85;;;13.60;99.90;;;;;;4948251;28;20042;-75
2022/09/09 04:45:35;;;;;;;8.68;6.72;;;13.60;99.90;;;;;;4939818;28;20121;-75
2022/09/09 04:48:02;;;;;;;7.57;6.88;;;13.60;99.90;;;;;;4938008;28;20591;-75
2022/09/09 04:50:28;;;;;;;7.63;6.40;;;13.50;99.90;;;;;;4950821;28;20110;-74
2022/09/09 04:52:53;;;;;;;7.45;6.65;;;13.50;99.90;;;;;;4952517;28;20408;-75
2022/09/09 04:55:19;;;;;;;7.20;5.90;;;13.50;99.90;;;;;;4927900;29;20039;-75
2022/09/09 04:57:45;;;;;;;7.10;6.07;;;13.50;99.90;;;;;;4928183;29;20043;-74
2022/09/09 05:00:13;;;;;;;7.45;6.20;;;13.40;99.90;;;;;;4935713;29;20113;-74
2022/09/09 05:02:39;;;;;;;6.65;5.95;;;13.40;99.90;;;;;;4944084;29;20043;-75
2022/09/09 05:05:06;;;;;;;6.15;5.43;;;13.40;99.90;;;;;;4924982;29;20035;-75
2022/09/09 05:07:31;;;;;;;6.90;6.20;;;13.40;99.90;;;;;;4933800;28;20039;-74
2022/09/09 05:09:57;;;;;;;7.20;6.18;;;13.40;99.90;;;;;;4969709;28;20097;-75
2022/09/09 05:12:25;;;;;;;7.03;5.60;;;13.30;99.90;;;;;;4955193;28;20045;-75
2022/09/09 05:14:51;;;;;;;7.30;5.57;;;13.30;99.90;;;;;;4955365;28;20502;-75
2022/09/09 05:17:17;;;;;;;7.93;6.47;;;13.30;99.90;;;;;;4955215;28;20098;-75
2022/09/09 05:19:43;;;;;;;6.68;5.72;;;13.30;99.90;;;;;;4929773;29;20039;-75
2022/09/09 05:22:11;;;;;;;6.22;5.50;;;13.30;99.90;;;;;;4949938;28;20081;-75
2022/09/09 05:24:37;;;;;;;7.05;5.63;;;13.30;99.90;;;;;;4956605;28;20049;-75
2022/09/09 05:27:05;;;;;;;7.55;6.30;;;13.30;99.90;;;;;;4959183;28;20050;-75
2022/09/09 05:29:35;;;;;;;7.07;6.25;;;13.40;99.90;;;;;;4959292;28;20074;-75
2022/09/09 05:32:01;;;;;;;8.10;6.60;;;13.40;99.90;;;;;;4954915;28;20433;-75
2022/09/09 05:34:27;;;;;;;7.55;6.28;;;13.40;99.90;;;;;;4917743;29;20039;-75
2022/09/09 05:36:53;;;;;;;8.25;6.43;;;13.40;99.90;;;;;;4931780;28;20134;-75
2022/09/09 05:39:19;;;;;;;7.95;6.88;;;13.50;99.90;;;;;;4958941;28;20042;-74
2022/09/09 05:41:44;;;;;;;7.20;6.35;;;13.50;99.90;;;;;;4975258;28;20042;-74
2022/09/09 05:44:10;;;;;;;8.15;6.45;;;13.50;99.90;;;;;;4947380;28;20035;-75
2022/09/09 05:46:35;;;;;;;7.45;6.65;;;13.50;99.90;;;;;;4923895;29;20043;-75
2022/09/09 05:49:02;;;;;;;7.20;6.28;;;13.50;99.90;;;;;;4934873;29;20040;-75
2022/09/09 05:51:32;;;;;;;8.65;6.75;;;13.50;99.90;;;;;;4959336;28;20125;-75
2022/09/09 05:53:58;;;;;;;7.60;6.20;;;13.50;99.90;;;;;;4959040;28;20042;-75
2022/09/09 05:56:26;;;;;;;6.70;6.00;;;13.50;99.90;;;;;;4962844;28;20050;-75
2022/09/09 05:58:53;;;;;;;9.45;6.38;;;13.50;99.90;;;;;;4948027;28;20502;-75
2022/09/09 06:01:34;;;;;;;8.07;6.30;;;13.50;99.90;;;;;;4942096;28;20047;-75
2022/09/09 06:04:00;;;;;;;7.22;6.47;;;13.50;99.90;;;;;;4958578;28;20031;-76
2022/09/09 06:06:30;;;;;;;8.70;6.90;;;13.60;99.90;;;;;;4958900;28;20043;-75
2022/09/09 06:09:00;;;;;;;6.97;5.95;;;13.60;99.90;;;;;;4958300;28;20043;-75
2022/09/09 06:11:30;;;;;;;7.43;6.30;;;13.60;99.90;;;;;;4953811;28;20418;-74
2022/09/09 06:13:56;;;;;;;7.85;6.20;;;13.70;99.90;;;;;;4947376;29;20042;-74
2022/09/09 06:16:25;;;;;;;8.68;6.38;;;13.70;99.90;;;;;;4946615;29;20042;-75
2022/09/09 06:18:51;;;;;;;7.45;6.45;;;13.80;99.90;;;;;;4954348;28;20066;-75
2022/09/09 06:21:29;;;;;;;8.32;6.45;;;13.80;99.90;;;;;;4955278;29;20443;-74
2022/09/09 06:23:56;;;;;;;7.05;6.28;;;13.80;99.90;;;;;;4939199;29;20043;-74
2022/09/09 06:26:32;;;;;;;6.50;5.80;;;13.80;99.90;;;;;;4935168;28;20039;-74
2022/09/09 06:28:59;;;;;;;6.57;5.97;;;13.80;99.90;;;;;;4942987;28;20401;-74
2022/09/09 06:31:29;;;;;;;6.93;6.15;;;13.90;99.90;;;;;;4957676;28;20094;-74
2022/09/09 06:33:56;;;;;;;7.03;6.32;;;13.90;99.90;;;;;;4950361;28;20089;-74
2022/09/09 06:36:27;;;;;;;6.65;5.95;;;14.00;99.90;;;;;;4957314;28;20098;-74
2022/09/09 06:38:53;;;;;;;7.18;6.20;;;14.00;99.90;;;;;;4931353;29;20110;-74
2022/09/09 06:41:20;;;;;;;6.38;5.68;;;14.10;99.90;;;;;;4938877;29;20047;-74
2022/09/09 06:43:46;;;;;;;7.93;6.32;;;14.10;99.90;;;;;;4944376;28;20101;-75
2022/09/09 06:46:18;;;;;;;6.72;5.97;;;14.10;99.90;;;;;;4957876;28;20053;-76
2022/09/09 06:48:44;;;;;;;9.00;6.13;;;14.20;99.90;;;;;;4941464;28;20043;-76
2022/09/09 06:51:22;;;;;;;7.10;5.78;;;14.20;99.90;;;;;;4954866;28;20034;-77
2022/09/09 06:53:51;;;;;;;7.13;5.93;;;14.30;99.90;;;;;;4936298;28;20054;-76
2022/09/09 06:56:16;;;;;;;6.38;5.63;;;14.30;99.90;;;;;;4952915;28;20046;-75
2022/09/09 06:58:43;;;;;;;7.97;5.85;;;14.40;99.90;;;;;;4949138;28;20035;-75
2022/09/09 07:01:12;;;;;;;6.97;5.68;;;14.40;99.90;;;;;;4946566;28;20113;-75
2022/09/09 07:03:38;;;;;;;6.05;5.45;;;14.50;99.90;;;;;;4957834;28;20065;-75
2022/09/09 07:06:05;;;;;;;7.28;5.20;;;14.50;99.90;;;;;;4957781;28;20402;-75
2022/09/09 07:08:31;;;;;;;5.50;4.80;;;14.50;99.90;;;;;;4939176;29;20043;-74
2022/09/09 07:11:04;;;;;;;7.03;5.38;;;14.60;99.90;;;;;;4931056;29;20376;-75
2022/09/09 07:13:31;;;;;;;5.82;5.22;;;14.60;99.90;;;;;;4938109;29;20125;-75
2022/09/09 07:16:07;;;;;;;6.93;5.70;;;14.70;99.90;;;;;;4953987;29;20182;-74
2022/09/09 07:18:33;;;;;;;8.38;6.15;;;14.70;99.90;;;;;;4953973;28;20035;-74
2022/09/09 07:20:58;;;;;;;7.80;5.75;;;14.90;99.90;;;;;;4936942;29;20398;-74
2022/09/09 07:23:24;;;;;;;7.93;5.05;;;14.90;99.90;;;;;;4935651;29;20031;-75
2022/09/09 07:25:51;;;;;;;6.50;5.57;;;15.10;99.90;;;;;;4922155;29;20443;-74
2022/09/09 07:28:17;;;;;;;6.63;5.57;;;15.20;99.90;;;;;;4952374;28;20379;-74
2022/09/09 07:30:43;;;;;;;6.03;5.03;;;15.30;99.90;;;;;;4929347;29;20039;-74
2022/09/09 07:33:12;;;;;;;6.13;4.72;;;15.30;99.90;;;;;;4937899;29;20035;-74
2022/09/09 07:35:38;;;;;;;7.60;5.30;;;15.30;99.90;;;;;;4946302;28;20043;-75
2022/09/09 07:38:06;;;;;;;6.78;4.95;;;15.40;99.90;;;;;;4942859;28;20054;-74
2022/09/09 07:40:33;;;;;;;6.90;4.72;;;15.50;99.90;;;;;;4950018;28;20383;-75
2022/09/09 07:42:59;;;;;;;6.28;4.90;;;15.60;99.90;;;;;;4925864;29;20067;-76
2022/09/09 07:45:27;;;;;;;5.90;4.53;;;15.70;99.90;;;;;;4928600;29;20034;-74
2022/09/09 07:47:53;;;;;;;4.68;4.18;;;15.70;99.90;;;;;;4944281;29;20085;-74
2022/09/09 07:50:19;;;;;;;5.78;4.55;;;15.80;99.90;;;;;;4936458;29;20560;-74
2022/09/09 07:52:44;;;;;;;6.10;4.25;;;15.90;99.90;;;;;;4934788;29;20045;-75
2022/09/09 07:55:10;;;;;;;4.72;3.85;;;16.00;99.90;;;;;;4952122;28;20509;-75
2022/09/09 07:57:36;;;;;;;6.30;4.18;;;16.00;99.90;;;;;;4939203;28;20047;-75
2022/09/09 08:00:03;;;;;;;4.35;3.67;;;16.10;99.90;;;;;;4933452;28;20035;-75
2022/09/09 08:02:29;;;;;;;4.50;3.78;;;16.10;99.90;;;;;;4928112;28;20093;-75
2022/09/09 08:04:56;;;;;;;3.47;2.97;;;16.10;99.90;;;;;;4932113;29;20032;-75
2022/09/09 08:07:23;;;;;;;5.50;3.78;;;16.10;99.90;;;;;;4921358;29;20494;-75
2022/09/09 08:09:49;;;;;;;5.88;3.55;;;16.10;99.90;;;;;;4937400;29;20416;-75
2022/09/09 08:12:16;;;;;;;5.13;3.60;;;16.00;99.90;;;;;;4930377;29;20048;-75
2022/09/09 08:14:41;;;;;;;4.45;3.60;;;16.00;99.90;;;;;;4926814;29;20122;-75
2022/09/09 08:17:07;;;;;;;4.57;3.60;;;16.10;99.90;;;;;;4936884;29;20126;-74
2022/09/09 08:19:35;;;;;;;4.65;3.35;;;16.30;99.90;;;;;;4937082;29;20437;-75
2022/09/09 08:22:02;;;;;;;5.43;3.30;;;16.40;99.90;;;;;;4947796;29;20067;-75
2022/09/09 08:24:28;;;;;;;4.25;3.35;;;16.60;99.90;;;;;;4930191;29;20520;-76
2022/09/09 08:26:54;;;;;;;4.28;3.42;;;16.70;99.90;;;;;;4933970;29;20164;-77
2022/09/09 08:29:20;;;;;;;4.00;3.28;;;16.80;99.90;;;;;;4933767;29;20072;-75
2022/09/09 08:31:48;;;;;;;4.57;3.00;;;16.90;99.90;;;;;;4933995;29;20098;-76
2022/09/09 08:34:14;;;;;;;5.82;2.92;;;17.00;99.90;;;;;;4933905;29;20483;-75
2022/09/09 08:36:45;;;;;;;3.72;2.65;;;17.10;99.90;;;;;;4945674;29;20051;-75
2022/09/09 08:39:13;;;;;;;4.70;3.17;;;17.20;99.90;;;;;;4946688;28;20035;-76
2022/09/09 08:42:03;;;;;;;5.13;2.97;;;17.40;99.90;;;;;;4936828;29;20043;-76
2022/09/09 08:44:37;;;;;;;4.00;2.40;;;17.70;99.90;;;;;;4936931;29;20174;-75
2022/09/09 08:47:28;;;;;;;3.67;2.40;;;18.10;99.90;;;;;;4943919;29;20078;-75
2022/09/09 08:49:57;;;;;;;6.47;2.50;;;18.20;99.90;;;;;;4933575;29;20434;-75
2022/09/09 08:52:42;;;;;;;3.22;2.13;;;18.40;99.90;;;;;;4933476;29;20090;-75
2022/09/09 08:55:25;;;;;;;7.68;4.00;;;18.60;99.90;;;;;;4917673;29;20055;-74
2022/09/09 08:57:54;;;;;;;4.10;2.40;;;18.90;99.90;;;;;;4935737;29;20052;-75
2022/09/09 09:00:20;;;;;;;4.60;2.17;;;18.90;99.90;;;;;;4928010;29;20031;-75
2022/09/09 09:02:49;;;;;;;3.45;2.20;;;18.70;99.90;;;;;;4920765;29;20074;-75
2022/09/09 09:05:24;;;;;;;2.50;1.98;;;18.50;99.90;;;;;;4933072;28;20039;-76
2022/09/09 09:08:17;;;;;;;2.72;2.00;;;18.30;99.90;;;;;;4937564;28;20039;-75
2022/09/09 09:10:49;;;;;;;2.88;2.15;;;18.20;99.90;;;;;;4960314;28;20410;-76
2022/09/09 09:13:25;;;;;;;4.60;2.53;;;18.10;99.90;;;;;;4922093;29;20105;-74
2022/09/09 09:15:57;;;;;;;6.07;1.98;;;18.10;99.90;;;;;;4948417;28;20490;-76
2022/09/09 09:18:23;;;;;;;3.47;2.45;;;18.10;99.90;;;;;;4935816;28;20055;-75
2022/09/09 09:21:14;;;;;;;3.15;1.70;;;18.30;99.90;;;;;;4932493;29;20549;-75
2022/09/09 09:23:55;;;;;;;4.15;1.88;;;18.30;99.90;;;;;;4950214;28;20574;-75
2022/09/09 09:26:23;;;;;;;3.65;1.63;;;18.40;99.90;;;;;;4949828;29;20080;-75
2022/09/09 09:28:50;;;;;;;4.93;2.00;;;18.30;99.90;;;;;;4943545;28;20102;-75
2022/09/09 09:31:15;;;;;;;4.88;1.90;;;18.20;99.90;;;;;;4965494;28;20050;-75
2022/09/09 09:33:41;;;;;;;2.97;1.67;;;18.10;99.90;;;;;;4945690;29;20047;-75
2022/09/09 09:36:08;;;;;;;4.13;1.70;;;18.10;99.90;;;;;;4938315;28;20073;-75
2022/09/09 09:38:34;;;;;;;4.20;1.90;;;18.20;99.90;;;;;;4940385;28;20521;-75
2022/09/09 09:41:01;;;;;;;3.67;1.98;;;18.10;99.90;;;;;;4946615;28;20063;-75
2022/09/09 09:43:30;;;;;;;3.40;1.75;;;18.10;99.90;;;;;;4955209;28;20039;-74
2022/09/09 09:45:59;;;;;;;3.50;1.60;;;18.10;99.90;;;;;;4951971;28;20045;-75
2022/09/09 09:48:27;;;;;;;4.78;1.67;;;18.20;99.90;;;;;;4942824;28;20545;-75
2022/09/09 09:50:58;;;;;;;2.67;1.58;;;18.60;99.90;;;;;;4951986;28;20122;-75
2022/09/09 09:53:27;;;;;;;3.40;1.80;;;18.80;99.90;;;;;;4948022;29;20043;-75
2022/09/09 09:56:08;;;;;;;3.50;1.33;;;18.80;99.90;;;;;;4943375;28;20104;-74
2022/09/09 09:58:51;;;;;;;3.15;1.35;;;18.90;99.90;;;;;;4946843;28;20035;-74
2022/09/09 10:01:27;;;;;;;3.50;1.60;;;18.70;99.90;;;;;;4936732;29;21396;-75
2022/09/09 10:04:02;;;;;;;3.78;1.60;;;18.60;99.90;;;;;;4941047;28;20138;-77
2022/09/09 10:06:37;;;;;;;3.00;1.58;;;18.50;99.90;;;;;;4953700;28;20079;-76
2022/09/09 10:09:20;;;;;;;3.80;1.55;;;18.60;99.90;;;;;;4954786;28;20051;-75
2022/09/09 10:11:57;;;;;;;3.67;1.50;;;18.70;99.90;;;;;;4940454;29;20490;-76
2022/09/09 10:14:44;;;;;;;3.33;1.50;;;18.70;99.90;;;;;;4939337;29;20051;-77
2022/09/09 10:17:16;;;;;;;2.42;1.42;;;18.60;99.90;;;;;;4923080;28;20040;-76
2022/09/09 10:19:58;;;;;;;3.53;1.63;;;18.50;99.90;;;;;;4952855;28;20099;-76
2022/09/09 10:22:33;;;;;;;3.40;1.45;;;18.40;99.90;;;;;;4936437;29;20039;-76
2022/09/09 10:25:01;;;;;;;3.45;1.60;;;18.20;99.90;;;;;;4954116;28;20454;-76
2022/09/09 10:27:46;;;;;;;3.92;1.80;;;18.10;99.90;;;;;;4954233;28;20035;-75
2022/09/09 10:30:22;;;;;;;4.07;1.63;;;18.10;99.90;;;;;;4959000;28;20129;-76
2022/09/09 10:33:09;;;;;;;4.95;2.10;;;18.10;99.90;;;;;;4948587;28;20046;-75
2022/09/09 10:35:58;;;;;;;2.28;1.20;;;18.20;99.90;;;;;;4957661;28;20114;-76
2022/09/09 10:38:29;;;;;;;2.63;1.35;;;18.20;99.90;;;;;;4935695;28;20055;-75
2022/09/09 10:40:57;;;;;;;2.50;1.20;;;18.20;99.90;;;;;;4959196;28;20114;-75
2022/09/09 10:43:35;;;;;;;2.25;1.30;;;18.30;99.90;;;;;;4946762;28;20055;-75
2022/09/09 10:46:09;;;;;;;2.90;1.20;;;18.40;99.90;;;;;;4952711;28;20046;-76
2022/09/09 10:48:57;;;;;;;2.08;1.20;;;18.50;99.90;;;;;;4939531;28;20071;-75
2022/09/09 10:51:43;;;;;;;4.38;1.40;;;18.60;99.90;;;;;;4953142;28;20138;-76
2022/09/09 10:54:31;;;;;;;2.55;1.20;;;18.60;99.90;;;;;;4939359;28;20130;-75
2022/09/09 10:57:25;;;;;;;2.63;1.10;;;18.50;99.90;;;;;;4962527;28;20137;-76
2022/09/09 10:59:56;;;;;;;3.33;1.40;;;18.40;99.90;;;;;;4969552;28;20692;-75
2022/09/09 11:02:30;;;;;;;4.18;1.40;;;18.20;99.90;;;;;;4959325;28;20161;-76
2022/09/09 11:05:04;;;;;;;2.03;1.00;;;18.10;99.90;;;;;;4915916;29;20031;-75
2022/09/09 11:07:55;;;;;;;2.20;1.10;;;17.90;99.90;;;;;;4944509;29;20043;-78
2022/09/09 11:10:40;;;;;;;3.40;1.50;;;17.80;99.90;;;;;;4934929;29;20050;-75
2022/09/09 11:13:17;;;;;;;1.83;1.13;;;17.80;99.90;;;;;;4927394;29;20384;-77
2022/09/09 11:15:46;;;;;;;4.10;1.42;;;17.90;99.90;;;;;;4952727;29;20188;-75
2022/09/09 11:18:19;;;;;;;2.78;1.42;;;18.00;99.90;;;;;;4937819;28;20043;-77
2022/09/09 11:20:46;;;;;;;3.80;1.60;;;18.20;99.90;;;;;;4954492;29;20566;-78
2022/09/09 11:23:16;;;;;;;3.08;1.40;;;18.30;99.90;;;;;;4936230;29;20150;-77
2022/09/09 11:25:51;;;;;;;4.60;1.30;;;18.50;99.90;;;;;;4934942;28;20032;-76
2022/09/09 11:28:22;;;;;;;2.90;1.15;;;18.60;99.90;;;;;;4920855;28;20051;-77
2022/09/09 11:31:09;;;;;;;3.03;1.10;;;18.70;99.90;;;;;;4969971;28;20047;-77
2022/09/09 11:33:37;;;;;;;2.20;1.20;;;18.90;99.90;;;;;;4952225;28;20047;-76
2022/09/09 11:36:36;;;;;;;3.47;1.30;;;19.00;99.90;;;;;;4956799;28;20509;-76
2022/09/09 11:39:29;;;;;;;3.38;1.13;;;19.20;99.90;;;;;;4934801;29;20043;-76
2022/09/09 11:42:19;;;;;;;4.00;1.50;;;19.70;99.90;;;;;;4921983;29;20035;-77
2022/09/09 11:44:45;;;;;;;4.20;1.08;;;20.20;99.90;;;;;;4922421;29;20498;-77
2022/09/09 11:47:30;;;;;;;2.40;1.00;;;20.40;99.90;;;;;;4937605;29;20055;-77
2022/09/09 11:50:16;;;;;;;1.75;1.02;;;20.60;99.90;;;;;;4950537;28;20096;-76
2022/09/09 11:52:47;;;;;;;1.88;1.05;;;20.50;99.90;;;;;;4916844;29;20055;-76
2022/09/09 11:55:31;;;;;;;2.60;1.20;;;20.60;99.90;;;;;;4935099;28;20094;-75
2022/09/09 11:58:18;;;;;;;2.25;1.00;;;20.50;99.90;;;;;;4938582;28;20437;-75
2022/09/09 12:00:46;;;;;;;2.13;1.15;;;20.40;99.90;;;;;;4955978;28;20043;-75
2022/09/09 12:03:48;;;;;;;1.98;0.90;;;20.30;99.90;;;;;;4946665;28;20058;-75
2022/09/09 12:06:19;;;;;;;5.82;1.15;;;20.30;99.90;;;;;;4943654;29;20097;-74
2022/09/09 12:08:50;;;;;;;2.47;1.30;;;20.50;99.90;;;;;;4919625;29;20047;-76
2022/09/09 12:11:27;;;;;;;4.97;1.10;;;20.60;99.90;;;;;;4956276;28;20469;-74
2022/09/09 12:14:03;;;;;;;2.40;0.90;;;20.50;99.90;;;;;;4948026;28;20043;-75
2022/09/09 12:16:35;;;;;;;2.03;1.00;;;20.50;99.90;;;;;;4944904;28;20101;-76
2022/09/09 12:19:21;;;;;;;5.07;1.10;;;20.40;99.90;;;;;;4938566;28;20038;-77
2022/09/09 12:22:18;;;;;;;2.60;1.02;;;20.10;99.90;;;;;;4967734;28;20074;-75
2022/09/09 12:24:56;;;;;;;2.15;0.80;;;19.70;99.90;;;;;;4950388;28;20128;-75
2022/09/09 12:27:34;;;;;;;3.15;1.45;;;19.60;99.90;;;;;;4955362;28;20046;-75
2022/09/09 12:30:13;;;;;;;2.97;1.25;;;19.70;99.90;;;;;;4949014;28;20500;-75
2022/09/09 12:32:39;;;;;;;1.55;1.05;;;20.10;99.90;;;;;;4935400;29;20049;-75
2022/09/09 12:35:27;;;;;;;2.65;0.75;;;20.50;99.90;;;;;;4936459;29;20043;-75
2022/09/09 12:37:57;;;;;;;1.70;0.75;;;20.80;99.90;;;;;;4947242;28;20043;-76
2022/09/09 12:40:32;;;;;;;3.58;0.90;;;20.90;99.90;;;;;;4927873;28;20505;-76
2022/09/09 12:43:01;;;;;;;2.28;0.80;;;20.80;99.90;;;;;;4954342;28;20050;-74
2022/09/09 12:45:31;;;;;;;3.60;1.00;;;20.80;99.90;;;;;;4955864;28;20043;-75
2022/09/09 12:48:06;;;;;;;2.13;1.00;;;20.70;99.90;;;;;;4953270;28;20045;-75
2022/09/09 12:50:37;;;;;;;2.00;0.68;;;20.70;99.90;;;;;;4971922;28;20038;-75
2022/09/09 12:53:08;;;;;;;1.15;0.70;;;20.70;99.90;;;;;;4936002;29;20410;-75
2022/09/09 12:55:37;;;;;;;1.88;0.60;;;20.80;99.90;;;;;;4928509;29;20043;-76
2022/09/09 12:58:05;;;;;;;2.42;0.75;;;20.70;99.90;;;;;;4935356;28;20124;-75
2022/09/09 13:00:32;;;;;;;1.63;0.60;;;20.60;99.90;;;;;;4951371;28;20049;-75
2022/09/09 13:03:00;;;;;;;2.35;0.80;;;20.60;99.90;;;;;;4954534;28;20046;-75
2022/09/09 13:05:36;;;;;;;2.15;0.80;;;20.50;99.90;;;;;;4937447;28;20512;-75
2022/09/09 13:08:04;;;;;;;3.38;0.93;;;20.40;99.90;;;;;;4926011;28;20125;-75
2022/09/09 13:10:34;;;;;;;2.22;0.60;;;20.20;99.90;;;;;;4941307;28;20101;-75
2022/09/09 13:13:00;;;;;;;2.47;0.70;;;19.80;99.90;;;;;;4961263;28;20030;-76
2022/09/09 13:15:29;;;;;;;3.20;0.70;;;19.50;99.90;;;;;;4938310;28;20423;-75